Impacts TAF Board INFO
FOR SITUATIONAL AWARENESS. NOT TO BE USED FOR FLIGHT PLANNING PURPOSES.
IDs:

KSTL - St Louis/Lambert Int, MO, US

Issued at 2320 UTC 22 May 2018
Updated at 0256 UTC 23 May 2018
Potential Impact None Slight Moderate High
Time0251Z 23/03Z 23/04Z 23/05Z 23/06Z 23/07Z 23/08Z 23/09Z 23/10Z 23/11Z 23/12Z 23/13Z 23/14Z 23/15Z>>
Type OBS PRVL PRVL PRVL PRVL PRVL PRVL PRVL PRVL PRVL PRVL PRVL PRVL PRVL
VIS 10 >6 >6 >6 >6 >6 >6 >6 >6 >6 >6 >6 >6 >6
CIG -- -- -- -- -- -- -- -- -- -- -- -- -- --
Cover FEW SKC SKC SKC SKC SKC SKC SKC SKC SKC SKC SKC FEW FEW
FltCat VFR VFR VFR VFR VFR VFR VFR VFR VFR VFR VFR VFR VFR VFR
WX -- -- -- -- -- -- -- -- -- -- -- -- -- --
WDir 40 VRB VRB VRB VRB VRB VRB VRB VRB VRB VRB VRB 100 100
WSpd 4 4 4 4 4 4 4 4 4 4 4 4 7 7
WGst -- -- -- -- -- -- -- -- -- -- -- -- -- --

Raw TAF
KSTL 222320Z 2300/2406 VRB04KT P6SM SKC
  FM231400 10007KT P6SM FEW060


Raw METAR
KSTL 230251Z 04004KT 10SM FEW250 25/17 A3005 RMK AO2 SLP165 T02500172 53017
KSTL 230151Z 04005KT 10SM SCT250 26/17 A3002 RMK AO2 SLP156 T02610172
KSTL 230051Z 05006KT 10SM FEW040 SCT250 27/17 A3001 RMK AO2 SLP153 T02670172
KSTL 222351Z 01005KT 10SM FEW040 SCT250 28/17 A3000 RMK AO2 SLP149 T02780172 10289 20267 57008

METAR Board
Radar Display
Forecast Discussion

FOR SITUATIONAL AWARENESS. NOT TO BE USED FOR FLIGHT PLANNING PURPOSES.